sensor_id;sensor_type;location;lat;lon;timestamp;pressure;altitude;pressure_sealevel;temperature;humidity
13593;BME280;6867;50.998;4.250;2023-09-12T00:00:08;101103.22;;;19.71;100.00
13593;BME280;6867;50.998;4.250;2023-09-12T00:02:37;101107.53;;;19.67;100.00
13593;BME280;6867;50.998;4.250;2023-09-12T00:05:03;101110.25;;;19.67;100.00
13593;BME280;6867;50.998;4.250;2023-09-12T00:07:30;101101.06;;;19.73;100.00
13593;BME280;6867;50.998;4.250;2023-09-12T00:09:57;101104.59;;;19.74;100.00
13593;BME280;6867;50.998;4.250;2023-09-12T00:12:24;101101.09;;;19.78;100.00
13593;BME280;6867;50.998;4.250;2023-09-12T00:14:51;101099.50;;;19.82;100.00
13593;BME280;6867;50.998;4.250;2023-09-12T00:17:19;101093.78;;;19.89;100.00
13593;BME280;6867;50.998;4.250;2023-09-12T00:19:46;101091.06;;;19.89;100.00
13593;BME280;6867;50.998;4.250;2023-09-12T00:22:12;101085.38;;;19.90;100.00
13593;BME280;6867;50.998;4.250;2023-09-12T00:24:39;101094.09;;;19.93;100.00
13593;BME280;6867;50.998;4.250;2023-09-12T00:27:06;101100.13;;;19.95;100.00
13593;BME280;6867;50.998;4.250;2023-09-12T00:29:32;101096.09;;;20.02;100.00
13593;BME280;6867;50.998;4.250;2023-09-12T00:31:59;101093.63;;;20.06;100.00
13593;BME280;6867;50.998;4.250;2023-09-12T00:34:27;101099.19;;;20.21;100.00
13593;BME280;6867;50.998;4.250;2023-09-12T00:36:54;101094.34;;;20.33;100.00
13593;BME280;6867;50.998;4.250;2023-09-12T00:39:21;101097.09;;;20.38;100.00
13593;BME280;6867;50.998;4.250;2023-09-12T00:41:47;101093.88;;;20.47;100.00
13593;BME280;6867;50.998;4.250;2023-09-12T00:44:14;101101.28;;;20.51;100.00
13593;BME280;6867;50.998;4.250;2023-09-12T00:46:41;101096.41;;;20.58;100.00
13593;BME280;6867;50.998;4.250;2023-09-12T00:49:10;101096.41;;;20.58;100.00
13593;BME280;6867;50.998;4.250;2023-09-12T00:51:40;101102.47;;;20.66;100.00
13593;BME280;6867;50.998;4.250;2023-09-12T00:54:07;101101.38;;;20.67;100.00
13593;BME280;6867;50.998;4.250;2023-09-12T00:56:34;101101.06;;;20.58;100.00
13593;BME280;6867;50.998;4.250;2023-09-12T00:59:01;101101.56;;;20.50;100.00
13593;BME280;6867;50.998;4.250;2023-09-12T01:01:29;101093.84;;;20.42;100.00
13593;BME280;6867;50.998;4.250;2023-09-12T01:03:55;101092.44;;;20.34;100.00
13593;BME280;6867;50.998;4.250;2023-09-12T01:06:24;101096.81;;;20.35;100.00
13593;BME280;6867;50.998;4.250;2023-09-12T01:08:53;101087.25;;;20.32;100.00
13593;BME280;6867;50.998;4.250;2023-09-12T01:11:20;101090.50;;;20.29;100.00
13593;BME280;6867;50.998;4.250;2023-09-12T01:13:47;101087.78;;;20.29;100.00
13593;BME280;6867;50.998;4.250;2023-09-12T01:16:13;101090.81;;;20.33;100.00
13593;BME280;6867;50.998;4.250;2023-09-12T01:18:40;101090.00;;;20.37;100.00
13593;BME280;6867;50.998;4.250;2023-09-12T01:27:13;101083.38;;;20.81;100.00
13593;BME280;6867;50.998;4.250;2023-09-12T01:29:42;101079.03;;;20.85;100.00
13593;BME280;6867;50.998;4.250;2023-09-12T01:32:10;101082.03;;;20.83;100.00
13593;BME280;6867;50.998;4.250;2023-09-12T01:34:37;101083.09;;;20.77;100.00
13593;BME280;6867;50.998;4.250;2023-09-12T01:37:04;101078.19;;;20.74;100.00
13593;BME280;6867;50.998;4.250;2023-09-12T01:39:31;101084.19;;;20.71;100.00
13593;BME280;6867;50.998;4.250;2023-09-12T01:41:58;101075.97;;;20.66;100.00
13593;BME280;6867;50.998;4.250;2023-09-12T01:44:28;101074.34;;;20.65;100.00
13593;BME280;6867;50.998;4.250;2023-09-12T01:46:57;101077.84;;;20.60;100.00
13593;BME280;6867;50.998;4.250;2023-09-12T01:49:28;101077.81;;;20.50;100.00
13593;BME280;6867;50.998;4.250;2023-09-12T01:51:55;101077.75;;;20.40;100.00
13593;BME280;6867;50.998;4.250;2023-09-12T01:54:25;101074.97;;;20.35;100.00
13593;BME280;6867;50.998;4.250;2023-09-12T01:56:52;101080.69;;;20.28;100.00
13593;BME280;6867;50.998;4.250;2023-09-12T01:59:22;101072.75;;;20.27;100.00
13593;BME280;6867;50.998;4.250;2023-09-12T02:01:51;101079.91;;;20.33;100.00
13593;BME280;6867;50.998;4.250;2023-09-12T02:04:17;101080.72;;;20.33;100.00
13593;BME280;6867;50.998;4.250;2023-09-12T02:06:44;101085.66;;;20.36;100.00
13593;BME280;6867;50.998;4.250;2023-09-12T02:09:11;101082.09;;;20.36;100.00
13593;BME280;6867;50.998;4.250;2023-09-12T02:11:37;101076.06;;;20.34;100.00
13593;BME280;6867;50.998;4.250;2023-09-12T02:14:04;101070.84;;;20.27;100.00
13593;BME280;6867;50.998;4.250;2023-09-12T02:16:31;101066.41;;;20.11;100.00
13593;BME280;6867;50.998;4.250;2023-09-12T02:18:59;101069.66;;;20.08;100.00
13593;BME280;6867;50.998;4.250;2023-09-12T02:21:25;101077.84;;;20.08;100.00
13593;BME280;6867;50.998;4.250;2023-09-12T02:23:52;101079.16;;;20.00;100.00
13593;BME280;6867;50.998;4.250;2023-09-12T02:26:19;101071.78;;;20.01;100.00
13593;BME280;6867;50.998;4.250;2023-09-12T02:28:45;101076.09;;;19.92;100.00
13593;BME280;6867;50.998;4.250;2023-09-12T02:31:12;101074.31;;;19.70;100.00
13593;BME280;6867;50.998;4.250;2023-09-12T02:33:39;101066.69;;;19.72;100.00
13593;BME280;6867;50.998;4.250;2023-09-12T02:36:07;101058.03;;;19.80;100.00
13593;BME280;6867;50.998;4.250;2023-09-12T02:38:34;101055.31;;;19.80;100.00
13593;BME280;6867;50.998;4.250;2023-09-12T02:41:01;101056.38;;;19.79;100.00
13593;BME280;6867;50.998;4.250;2023-09-12T02:43:28;101059.72;;;19.86;100.00
13593;BME280;6867;50.998;4.250;2023-09-12T02:45:55;101061.34;;;19.87;100.00
13593;BME280;6867;50.998;4.250;2023-09-12T02:48:22;101061.63;;;19.86;100.00
13593;BME280;6867;50.998;4.250;2023-09-12T02:50:50;101061.31;;;19.77;100.00
13593;BME280;6867;50.998;4.250;2023-09-12T02:53:17;101062.91;;;19.73;100.00
13593;BME280;6867;50.998;4.250;2023-09-12T02:55:44;101064.03;;;19.77;100.00
13593;BME280;6867;50.998;4.250;2023-09-12T02:58:11;101061.03;;;19.79;100.00
13593;BME280;6867;50.998;4.250;2023-09-12T03:00:38;101073.28;;;19.81;100.00
13593;BME280;6867;50.998;4.250;2023-09-12T03:03:06;101073.56;;;19.80;100.00
13593;BME280;6867;50.998;4.250;2023-09-12T03:05:34;101081.22;;;19.83;100.00
13593;BME280;6867;50.998;4.250;2023-09-12T03:08:01;101077.69;;;19.82;100.00
13593;BME280;6867;50.998;4.250;2023-09-12T03:10:29;101089.41;;;19.83;100.00
13593;BME280;6867;50.998;4.250;2023-09-12T03:12:56;101088.59;;;19.82;100.00
13593;BME280;6867;50.998;4.250;2023-09-12T03:15:22;101091.22;;;19.72;100.00
13593;BME280;6867;50.998;4.250;2023-09-12T03:17:49;101084.97;;;19.77;100.00
13593;BME280;6867;50.998;4.250;2023-09-12T03:20:16;101095.06;;;19.76;100.00
13593;BME280;6867;50.998;4.250;2023-09-12T03:22:43;101092.44;;;19.86;100.00
13593;BME280;6867;50.998;4.250;2023-09-12T03:25:10;101092.47;;;19.92;100.00
13593;BME280;6867;50.998;4.250;2023-09-12T03:27:38;101090.81;;;19.90;100.00
13593;BME280;6867;50.998;4.250;2023-09-12T03:30:06;101094.41;;;19.96;100.00
13593;BME280;6867;50.998;4.250;2023-09-12T03:32:33;101082.41;;;19.97;100.00
13593;BME280;6867;50.998;4.250;2023-09-12T03:35:00;101086.53;;;20.00;100.00
13593;BME280;6867;50.998;4.250;2023-09-12T03:37:26;101083.78;;;20.00;100.00
13593;BME280;6867;50.998;4.250;2023-09-12T03:39:53;101079.69;;;19.97;100.00
13593;BME280;6867;50.998;4.250;2023-09-12T03:42:20;101086.50;;;19.95;100.00
13593;BME280;6867;50.998;4.250;2023-09-12T03:44:48;101077.25;;;20.01;100.00
13593;BME280;6867;50.998;4.250;2023-09-12T03:47:15;101076.56;;;19.78;100.00
13593;BME280;6867;50.998;4.250;2023-09-12T03:49:41;101067.91;;;19.86;100.00
13593;BME280;6867;50.998;4.250;2023-09-12T03:52:08;101065.41;;;19.85;100.00
13593;BME280;6867;50.998;4.250;2023-09-12T03:54:35;101066.00;;;19.87;100.00
13593;BME280;6867;50.998;4.250;2023-09-12T03:57:01;101067.94;;;19.92;100.00
13593;BME280;6867;50.998;4.250;2023-09-12T03:59:28;101063.88;;;19.94;100.00
13593;BME280;6867;50.998;4.250;2023-09-12T04:01:56;101067.94;;;19.97;100.00
13593;BME280;6867;50.998;4.250;2023-09-12T04:04:23;101067.97;;;20.02;100.00
13593;BME280;6867;50.998;4.250;2023-09-12T04:06:49;101068.56;;;20.04;100.00
13593;BME280;6867;50.998;4.250;2023-09-12T04:09:16;101054.63;;;20.00;100.00
13593;BME280;6867;50.998;4.250;2023-09-12T04:11:43;101057.34;;;20.00;100.00
13593;BME280;6867;50.998;4.250;2023-09-12T04:14:09;101054.81;;;19.88;100.00
13593;BME280;6867;50.998;4.250;2023-09-12T04:16:36;101057.47;;;19.78;100.00
13593;BME280;6867;50.998;4.250;2023-09-12T04:19:04;101046.38;;;19.90;100.00
13593;BME280;6867;50.998;4.250;2023-09-12T04:21:31;101036.84;;;19.93;100.00
13593;BME280;6867;50.998;4.250;2023-09-12T04:23:58;101027.56;;;19.94;100.00
13593;BME280;6867;50.998;4.250;2023-09-12T04:26:24;101020.97;;;19.84;100.00
13593;BME280;6867;50.998;4.250;2023-09-12T04:28:51;101020.41;;;19.77;100.00
13593;BME280;6867;50.998;4.250;2023-09-12T04:31:18;101009.41;;;19.62;100.00
13593;BME280;6867;50.998;4.250;2023-09-12T04:33:44;101019.16;;;19.58;100.00
13593;BME280;6867;50.998;4.250;2023-09-12T04:36:12;101021.88;;;19.58;100.00
13593;BME280;6867;50.998;4.250;2023-09-12T04:38:39;101030.88;;;19.58;100.00
13593;BME280;6867;50.998;4.250;2023-09-12T04:41:06;101032.56;;;19.64;100.00
13593;BME280;6867;50.998;4.250;2023-09-12T04:43:32;101031.50;;;19.65;100.00
13593;BME280;6867;50.998;4.250;2023-09-12T04:45:59;101028.22;;;19.69;100.00
13593;BME280;6867;50.998;4.250;2023-09-12T04:48:26;101029.28;;;19.62;100.00
13593;BME280;6867;50.998;4.250;2023-09-12T04:50:53;101028.78;;;19.65;100.00
13593;BME280;6867;50.998;4.250;2023-09-12T04:53:21;101030.38;;;19.61;100.00
13593;BME280;6867;50.998;4.250;2023-09-12T04:55:48;101038.84;;;19.33;100.00
13593;BME280;6867;50.998;4.250;2023-09-12T04:58:14;101048.34;;;19.30;100.00
13593;BME280;6867;50.998;4.250;2023-09-12T05:00:41;101045.88;;;19.29;100.00
13593;BME280;6867;50.998;4.250;2023-09-12T05:03:07;101047.53;;;19.30;100.00
13593;BME280;6867;50.998;4.250;2023-09-12T05:05:35;101046.91;;;19.23;100.00
13593;BME280;6867;50.998;4.250;2023-09-12T05:08:03;101047.31;;;19.09;100.00
13593;BME280;6867;50.998;4.250;2023-09-12T05:10:31;101043.69;;;18.99;100.00
13593;BME280;6867;50.998;4.250;2023-09-12T05:12:58;101054.22;;;18.90;100.00
13593;BME280;6867;50.998;4.250;2023-09-12T05:15:24;101055.28;;;18.89;100.00
13593;BME280;6867;50.998;4.250;2023-09-12T05:17:51;101050.09;;;18.87;100.00
13593;BME280;6867;50.998;4.250;2023-09-12T05:20:17;101050.94;;;18.88;100.00
13593;BME280;6867;50.998;4.250;2023-09-12T05:22:44;101049.28;;;18.87;100.00
13593;BME280;6867;50.998;4.250;2023-09-12T05:25:11;101044.34;;;18.84;100.00
13593;BME280;6867;50.998;4.250;2023-09-12T05:27:39;101052.09;;;18.70;100.00
13593;BME280;6867;50.998;4.250;2023-09-12T05:30:06;101047.47;;;18.71;100.00
13593;BME280;6867;50.998;4.250;2023-09-12T05:32:33;101058.78;;;18.62;100.00
13593;BME280;6867;50.998;4.250;2023-09-12T05:35:01;101047.22;;;18.72;100.00
13593;BME280;6867;50.998;4.250;2023-09-12T05:37:28;101054.88;;;18.75;100.00
13593;BME280;6867;50.998;4.250;2023-09-12T05:39:55;101059.19;;;18.71;100.00
13593;BME280;6867;50.998;4.250;2023-09-12T05:42:22;101065.31;;;18.61;100.00
13593;BME280;6867;50.998;4.250;2023-09-12T05:44:50;101076.31;;;18.50;100.00
13593;BME280;6867;50.998;4.250;2023-09-12T05:47:18;101077.81;;;18.40;100.00
13593;BME280;6867;50.998;4.250;2023-09-12T05:49:45;101083.44;;;18.34;100.00
13593;BME280;6867;50.998;4.250;2023-09-12T05:52:12;101073.19;;;18.41;100.00
13593;BME280;6867;50.998;4.250;2023-09-12T05:54:39;101082.00;;;18.48;100.00
13593;BME280;6867;50.998;4.250;2023-09-12T05:57:07;101073.97;;;18.58;100.00
13593;BME280;6867;50.998;4.250;2023-09-12T05:59:36;101085.22;;;18.67;100.00
13593;BME280;6867;50.998;4.250;2023-09-12T06:02:05;101077.63;;;18.69;100.00
13593;BME280;6867;50.998;4.250;2023-09-12T06:04:33;101075.56;;;18.76;100.00
13593;BME280;6867;50.998;4.250;2023-09-12T06:07:01;101086.91;;;18.90;100.00
13593;BME280;6867;50.998;4.250;2023-09-12T06:09:28;101091.63;;;19.00;100.00
13593;BME280;6867;50.998;4.250;2023-09-12T06:11:54;101088.44;;;19.08;100.00
13593;BME280;6867;50.998;4.250;2023-09-12T06:14:21;101089.88;;;19.15;100.00
13593;BME280;6867;50.998;4.250;2023-09-12T06:16:48;101097.28;;;19.20;100.00
13593;BME280;6867;50.998;4.250;2023-09-12T06:19:16;101104.47;;;19.31;100.00
13593;BME280;6867;50.998;4.250;2023-09-12T06:21:44;101113.81;;;19.40;100.00
13593;BME280;6867;50.998;4.250;2023-09-12T06:24:12;101106.63;;;19.56;100.00
13593;BME280;6867;50.998;4.250;2023-09-12T06:26:40;101107.41;;;19.84;100.00
13593;BME280;6867;50.998;4.250;2023-09-12T06:29:06;101105.34;;;20.01;100.00
13593;BME280;6867;50.998;4.250;2023-09-12T06:31:33;101096.16;;;20.12;100.00
13593;BME280;6867;50.998;4.250;2023-09-12T06:34:00;101099.16;;;20.16;100.00
13593;BME280;6867;50.998;4.250;2023-09-12T06:36:29;101086.94;;;20.24;100.00
13593;BME280;6867;50.998;4.250;2023-09-12T06:38:56;101085.66;;;20.36;100.00
13593;BME280;6867;50.998;4.250;2023-09-12T06:41:23;101104.88;;;20.57;100.00
13593;BME280;6867;50.998;4.250;2023-09-12T06:43:49;101104.69;;;20.74;100.00
13593;BME280;6867;50.998;4.250;2023-09-12T06:46:16;101106.91;;;20.87;100.00
13593;BME280;6867;50.998;4.250;2023-09-12T06:48:43;101099.81;;;20.96;100.00
13593;BME280;6867;50.998;4.250;2023-09-12T06:51:11;101100.41;;;21.03;100.00
13593;BME280;6867;50.998;4.250;2023-09-12T06:53:39;101107.22;;;21.01;100.00
13593;BME280;6867;50.998;4.250;2023-09-12T06:56:05;101102.47;;;20.71;99.78
13593;BME280;6867;50.998;4.250;2023-09-12T06:58:33;101098.19;;;21.05;99.45
13593;BME280;6867;50.998;4.250;2023-09-12T07:01:01;101106.97;;;21.12;98.61
13593;BME280;6867;50.998;4.250;2023-09-12T07:03:29;101110.22;;;21.04;98.27
13593;BME280;6867;50.998;4.250;2023-09-12T07:05:56;101109.06;;;20.85;98.21
13593;BME280;6867;50.998;4.250;2023-09-12T07:08:22;101119.16;;;20.79;98.44
13593;BME280;6867;50.998;4.250;2023-09-12T07:10:50;101121.09;;;20.89;99.09
13593;BME280;6867;50.998;4.250;2023-09-12T07:13:20;101120.56;;;20.97;97.79
13593;BME280;6867;50.998;4.250;2023-09-12T07:15:46;101135.09;;;21.18;97.49
13593;BME280;6867;50.998;4.250;2023-09-12T07:18:13;101153.78;;;21.36;97.20
13593;BME280;6867;50.998;4.250;2023-09-12T07:20:41;101137.94;;;21.59;95.67
13593;BME280;6867;50.998;4.250;2023-09-12T07:23:08;101135.97;;;21.24;95.63
13593;BME280;6867;50.998;4.250;2023-09-12T07:25:38;101137.59;;;21.30;95.47
13593;BME280;6867;50.998;4.250;2023-09-12T07:28:07;101146.31;;;21.11;96.63
13593;BME280;6867;50.998;4.250;2023-09-12T07:30:33;101149.34;;;21.25;96.44
13593;BME280;6867;50.998;4.250;2023-09-12T07:33:00;101153.78;;;21.42;96.04
13593;BME280;6867;50.998;4.250;2023-09-12T07:35:27;101141.75;;;21.48;95.78
13593;BME280;6867;50.998;4.250;2023-09-12T07:37:53;101146.69;;;21.81;94.64
13593;BME280;6867;50.998;4.250;2023-09-12T07:40:20;101134.94;;;21.81;93.43
13593;BME280;6867;50.998;4.250;2023-09-12T07:42:47;101133.28;;;21.85;93.04
13593;BME280;6867;50.998;4.250;2023-09-12T07:45:15;101146.72;;;21.86;93.01
13593;BME280;6867;50.998;4.250;2023-09-12T07:47:41;101148.06;;;21.79;92.87
13593;BME280;6867;50.998;4.250;2023-09-12T07:50:08;101157.06;;;21.64;93.31
13593;BME280;6867;50.998;4.250;2023-09-12T07:52:35;101161.19;;;21.77;93.16
13593;BME280;6867;50.998;4.250;2023-09-12T07:55:02;101156.81;;;21.76;92.75
13593;BME280;6867;50.998;4.250;2023-09-12T07:57:30;101168.00;;;21.64;92.60
13593;BME280;6867;50.998;4.250;2023-09-12T07:59:57;101163.06;;;21.61;93.35
13593;BME280;6867;50.998;4.250;2023-09-12T08:02:24;101171.84;;;21.73;93.55
13593;BME280;6867;50.998;4.250;2023-09-12T08:04:51;101171.59;;;21.75;93.19
13593;BME280;6867;50.998;4.250;2023-09-12T08:07:18;101166.94;;;21.75;93.12
13593;BME280;6867;50.998;4.250;2023-09-12T08:09:51;101168.84;;;21.90;92.43
13593;BME280;6867;50.998;4.250;2023-09-12T08:12:18;101168.31;;;21.88;92.67
13593;BME280;6867;50.998;4.250;2023-09-12T08:14:45;101169.09;;;21.68;92.78
13593;BME280;6867;50.998;4.250;2023-09-12T08:17:12;101168.59;;;21.86;92.75
13593;BME280;6867;50.998;4.250;2023-09-12T08:19:41;101167.75;;;21.91;92.23
13593;BME280;6867;50.998;4.250;2023-09-12T08:22:08;101166.66;;;21.77;91.98
13593;BME280;6867;50.998;4.250;2023-09-12T08:24:35;101172.41;;;21.91;91.79
13593;BME280;6867;50.998;4.250;2023-09-12T08:27:03;101169.94;;;22.09;90.83
13593;BME280;6867;50.998;4.250;2023-09-12T08:29:30;101169.13;;;22.14;90.68
13593;BME280;6867;50.998;4.250;2023-09-12T08:31:57;101163.13;;;22.17;90.27
13593;BME280;6867;50.998;4.250;2023-09-12T08:34:24;101166.91;;;22.31;89.35
13593;BME280;6867;50.998;4.250;2023-09-12T08:36:52;101167.16;;;22.50;88.85
13593;BME280;6867;50.998;4.250;2023-09-12T08:39:23;101157.41;;;23.04;87.80
13593;BME280;6867;50.998;4.250;2023-09-12T08:41:51;101157.47;;;23.38;85.66
13593;BME280;6867;50.998;4.250;2023-09-12T08:44:18;101158.13;;;23.64;84.87
13593;BME280;6867;50.998;4.250;2023-09-12T08:46:46;101151.66;;;23.50;83.38
13593;BME280;6867;50.998;4.250;2023-09-12T08:49:12;101153.19;;;23.61;82.62
13593;BME280;6867;50.998;4.250;2023-09-12T08:51:39;101154.94;;;23.91;82.02
13593;BME280;6867;50.998;4.250;2023-09-12T08:54:08;101147.91;;;24.09;80.96
13593;BME280;6867;50.998;4.250;2023-09-12T08:56:38;101148.41;;;24.11;80.58
13593;BME280;6867;50.998;4.250;2023-09-12T08:59:06;101135.63;;;24.01;80.24
13593;BME280;6867;50.998;4.250;2023-09-12T09:01:34;101137.34;;;24.21;79.84
13593;BME280;6867;50.998;4.250;2023-09-12T09:04:02;101146.53;;;24.06;80.09
13593;BME280;6867;50.998;4.250;2023-09-12T09:06:30;101137.78;;;24.33;79.25
13593;BME280;6867;50.998;4.250;2023-09-12T09:08:58;101141.09;;;24.30;79.67
13593;BME280;6867;50.998;4.250;2023-09-12T09:11:27;101147.03;;;24.14;80.01
13593;BME280;6867;50.998;4.250;2023-09-12T09:13:54;101141.41;;;24.00;79.18
13593;BME280;6867;50.998;4.250;2023-09-12T09:16:22;101145.78;;;24.01;79.91
13593;BME280;6867;50.998;4.250;2023-09-12T09:18:54;101150.19;;;23.63;81.28
13593;BME280;6867;50.998;4.250;2023-09-12T09:21:22;101149.94;;;23.59;81.61
13593;BME280;6867;50.998;4.250;2023-09-12T09:23:49;101148.56;;;23.96;80.81
13593;BME280;6867;50.998;4.250;2023-09-12T09:26:17;101148.47;;;24.06;80.83
13593;BME280;6867;50.998;4.250;2023-09-12T09:28:45;101147.28;;;24.17;80.58
13593;BME280;6867;50.998;4.250;2023-09-12T09:31:12;101153.00;;;24.21;80.33
13593;BME280;6867;50.998;4.250;2023-09-12T09:33:40;101157.38;;;24.51;81.27
13593;BME280;6867;50.998;4.250;2023-09-12T09:36:11;101149.00;;;24.61;79.04
13593;BME280;6867;50.998;4.250;2023-09-12T09:38:37;101151.59;;;24.52;78.88
13593;BME280;6867;50.998;4.250;2023-09-12T09:41:05;101151.69;;;24.90;78.44
13593;BME280;6867;50.998;4.250;2023-09-12T09:43:32;101145.53;;;24.98;77.91
13593;BME280;6867;50.998;4.250;2023-09-12T09:46:01;101141.06;;;25.26;76.34
13593;BME280;6867;50.998;4.250;2023-09-12T09:48:28;101138.19;;;25.69;75.10
13593;BME280;6867;50.998;4.250;2023-09-12T09:51:00;101135.78;;;26.14;74.53
13593;BME280;6867;50.998;4.250;2023-09-12T09:53:28;101136.31;;;26.30;73.06
13593;BME280;6867;50.998;4.250;2023-09-12T09:56:07;101147.63;;;25.82;74.63
13593;BME280;6867;50.998;4.250;2023-09-12T09:58:34;101145.78;;;25.77;74.78
13593;BME280;6867;50.998;4.250;2023-09-12T10:01:05;101124.53;;;25.97;72.84
13593;BME280;6867;50.998;4.250;2023-09-12T10:03:35;101153.94;;;26.15;74.72
13593;BME280;6867;50.998;4.250;2023-09-12T10:06:04;101138.97;;;26.21;72.85
13593;BME280;6867;50.998;4.250;2023-09-12T10:08:32;101137.09;;;26.17;72.68
13593;BME280;6867;50.998;4.250;2023-09-12T10:11:01;101132.75;;;25.83;72.52
13593;BME280;6867;50.998;4.250;2023-09-12T10:13:29;101112.06;;;25.86;71.50
13593;BME280;6867;50.998;4.250;2023-09-12T10:15:58;101113.97;;;26.31;70.89
13593;BME280;6867;50.998;4.250;2023-09-12T10:18:33;101130.41;;;26.78;71.07
13593;BME280;6867;50.998;4.250;2023-09-12T10:21:04;101109.19;;;26.92;69.59
13593;BME280;6867;50.998;4.250;2023-09-12T10:23:37;101112.72;;;27.06;69.62
13593;BME280;6867;50.998;4.250;2023-09-12T10:26:09;101098.00;;;26.47;69.61
13593;BME280;6867;50.998;4.250;2023-09-12T10:28:37;101093.31;;;26.48;68.73
13593;BME280;6867;50.998;4.250;2023-09-12T10:31:08;101104.63;;;26.46;69.24
13593;BME280;6867;50.998;4.250;2023-09-12T10:33:36;101104.31;;;26.34;68.74
13593;BME280;6867;50.998;4.250;2023-09-12T10:36:03;101108.16;;;26.33;68.70
13593;BME280;6867;50.998;4.250;2023-09-12T10:38:35;101108.59;;;26.54;68.22
13593;BME280;6867;50.998;4.250;2023-09-12T10:41:04;101101.63;;;26.29;68.42
13593;BME280;6867;50.998;4.250;2023-09-12T10:43:32;101108.56;;;26.26;68.08
13593;BME280;6867;50.998;4.250;2023-09-12T10:46:01;101094.31;;;26.52;66.98
13593;BME280;6867;50.998;4.250;2023-09-12T10:48:29;101079.81;;;26.60;65.97
13593;BME280;6867;50.998;4.250;2023-09-12T10:50:57;101073.72;;;26.63;65.34
13593;BME280;6867;50.998;4.250;2023-09-12T10:53:26;101097.19;;;26.47;66.43
13593;BME280;6867;50.998;4.250;2023-09-12T10:56:00;101051.66;;;26.63;63.22
13593;BME280;6867;50.998;4.250;2023-09-12T10:59:13;101085.03;;;26.75;65.12
13593;BME280;6867;50.998;4.250;2023-09-12T11:01:41;101099.41;;;27.08;64.90
13593;BME280;6867;50.998;4.250;2023-09-12T11:04:40;101070.66;;;27.01;63.34
13593;BME280;6867;50.998;4.250;2023-09-12T11:07:43;101061.06;;;26.98;62.51
13593;BME280;6867;50.998;4.250;2023-09-12T11:10:17;101067.47;;;27.07;62.31
13593;BME280;6867;50.998;4.250;2023-09-12T11:12:45;101076.78;;;27.12;62.79
13593;BME280;6867;50.998;4.250;2023-09-12T11:15:13;101083.81;;;27.04;63.65
13593;BME280;6867;50.998;4.250;2023-09-12T11:17:40;101077.28;;;27.14;62.84
13593;BME280;6867;50.998;4.250;2023-09-12T11:20:08;101072.28;;;27.38;61.76
13593;BME280;6867;50.998;4.250;2023-09-12T11:22:38;101083.75;;;27.31;62.78
13593;BME280;6867;50.998;4.250;2023-09-12T11:25:15;101099.53;;;27.62;62.87
13593;BME280;6867;50.998;4.250;2023-09-12T11:27:45;101074.06;;;27.88;62.33
13593;BME280;6867;50.998;4.250;2023-09-12T11:30:13;101051.88;;;27.25;61.57
13593;BME280;6867;50.998;4.250;2023-09-12T11:32:39;101087.56;;;27.22;63.36
13593;BME280;6867;50.998;4.250;2023-09-12T11:35:07;101060.38;;;27.51;62.20
13593;BME280;6867;50.998;4.250;2023-09-12T11:37:34;101094.97;;;27.58;63.77
13593;BME280;6867;50.998;4.250;2023-09-12T11:40:15;101041.78;;;27.66;61.09
13593;BME280;6867;50.998;4.250;2023-09-12T11:42:43;101040.47;;;27.86;59.94
13593;BME280;6867;50.998;4.250;2023-09-12T11:45:10;101056.44;;;27.97;61.04
13593;BME280;6867;50.998;4.250;2023-09-12T11:47:40;101069.81;;;27.82;62.36
13593;BME280;6867;50.998;4.250;2023-09-12T11:50:07;101085.38;;;27.33;64.20
13593;BME280;6867;50.998;4.250;2023-09-12T11:52:36;101068.56;;;27.65;63.34
13593;BME280;6867;50.998;4.250;2023-09-12T11:55:05;101076.00;;;27.87;62.71
13593;BME280;6867;50.998;4.250;2023-09-12T11:57:32;101059.47;;;27.65;62.31
13593;BME280;6867;50.998;4.250;2023-09-12T12:00:02;101083.47;;;27.87;63.09
13593;BME280;6867;50.998;4.250;2023-09-12T12:02:33;101099.75;;;28.28;63.20
13593;BME280;6867;50.998;4.250;2023-09-12T12:05:00;101064.91;;;28.01;61.93
13593;BME280;6867;50.998;4.250;2023-09-12T12:07:29;101048.03;;;28.11;60.42
13593;BME280;6867;50.998;4.250;2023-09-12T12:09:56;101046.09;;;28.12;60.02
13593;BME280;6867;50.998;4.250;2023-09-12T12:12:24;101086.47;;;27.99;63.18
13593;BME280;6867;50.998;4.250;2023-09-12T12:14:51;101072.34;;;28.00;62.29
13593;BME280;6867;50.998;4.250;2023-09-12T12:17:17;101064.50;;;28.34;60.84
13593;BME280;6867;50.998;4.250;2023-09-12T12:19:45;101074.34;;;28.17;62.14
13593;BME280;6867;50.998;4.250;2023-09-12T12:22:12;101086.19;;;28.40;61.93
13593;BME280;6867;50.998;4.250;2023-09-12T12:24:41;101060.34;;;28.45;60.57
13593;BME280;6867;50.998;4.250;2023-09-12T12:27:08;101050.22;;;28.32;60.33
13593;BME280;6867;50.998;4.250;2023-09-12T12:29:38;101084.81;;;27.89;63.45
13593;BME280;6867;50.998;4.250;2023-09-12T12:32:05;101060.22;;;28.10;61.95
13593;BME280;6867;50.998;4.250;2023-09-12T12:34:34;101066.69;;;28.05;62.34
13593;BME280;6867;50.998;4.250;2023-09-12T12:37:01;101082.91;;;28.38;63.59
13593;BME280;6867;50.998;4.250;2023-09-12T12:39:27;101047.19;;;28.42;61.36
13593;BME280;6867;50.998;4.250;2023-09-12T12:41:54;101033.91;;;28.21;61.61
13593;BME280;6867;50.998;4.250;2023-09-12T12:44:21;101013.16;;;28.24;59.92
13593;BME280;6867;50.998;4.250;2023-09-12T12:46:50;101008.06;;;28.17;59.67
13593;BME280;6867;50.998;4.250;2023-09-12T12:49:17;101014.16;;;27.88;60.69
13593;BME280;6867;50.998;4.250;2023-09-12T12:51:45;101008.34;;;27.98;60.64
13593;BME280;6867;50.998;4.250;2023-09-12T12:54:14;100994.75;;;28.11;59.63
13593;BME280;6867;50.998;4.250;2023-09-12T12:56:41;101039.31;;;28.26;61.47
13593;BME280;6867;50.998;4.250;2023-09-12T12:59:10;101028.69;;;28.60;59.96
13593;BME280;6867;50.998;4.250;2023-09-12T13:01:38;101016.50;;;28.87;59.55
13593;BME280;6867;50.998;4.250;2023-09-12T13:04:07;101029.47;;;29.47;58.43